Time;durP1;ratioP1;P1;durP2;ratioP2;P2;SDS_P1;SDS_P2;PMS_P1;PMS_P2;Temp;Humidity;BMP_temperature;BMP_pressure;BME280_temperature;BME280_humidity;BME280_pressure;Samples;Min_cycle;Max_cycle;Signal;HPM_P1;HPM_P2
2022/04/24 00:01:17;;;;;;;16.05;7.28;;;;;;;9.48;63.50;99715.88;4916578;29;20589;-82
2022/04/24 00:03:44;;;;;;;12.20;6.45;;;;;;;9.21;63.33;99680.97;4917707;29;20083;-81
2022/04/24 00:06:11;;;;;;;14.02;7.47;;;;;;;9.35;62.92;99701.88;4917585;29;20139;-80
2022/04/24 00:08:38;;;;;;;11.10;6.53;;;;;;;9.47;63.50;99733.25;4910714;29;20117;-82
2022/04/24 00:11:05;;;;;;;12.95;6.90;;;;;;;9.44;63.35;99717.56;4905728;29;20076;-81
2022/04/24 00:13:38;;;;;;;18.27;7.47;;;;;;;9.41;63.75;99726.25;4905869;29;20411;-81
2022/04/24 00:16:06;;;;;;;12.25;7.00;;;;;;;9.25;63.55;99703.59;4904968;29;20056;-80
2022/04/24 00:18:35;;;;;;;14.13;7.07;;;;;;;9.26;63.52;99699.22;4903570;29;20048;-82
2022/04/24 00:21:03;;;;;;;14.07;7.18;;;;;;;9.10;63.85;99686.09;4905900;29;20055;-81
2022/04/24 00:23:30;;;;;;;11.95;6.88;;;;;;;9.25;63.55;99721.81;4907577;29;20052;-80
2022/04/24 00:25:57;;;;;;;15.90;7.25;;;;;;;9.22;64.06;99730.47;4907071;29;20056;-79
2022/04/24 00:28:24;;;;;;;15.05;7.82;;;;;;;9.22;63.75;99721.78;4907186;29;20053;-80
2022/04/24 00:30:51;;;;;;;15.45;7.25;;;;;;;9.00;64.70;99679.09;4905189;29;20146;-80
2022/04/24 00:33:18;;;;;;;15.70;7.60;;;;;;;9.01;63.66;99684.31;4907823;29;20056;-79
2022/04/24 00:35:45;;;;;;;15.60;6.95;;;;;;;9.14;63.84;99707.81;4906905;29;20075;-79
2022/04/24 00:38:12;;;;;;;18.83;7.93;;;;;;;8.93;63.75;99672.09;4910103;29;20055;-80
2022/04/24 00:40:39;;;;;;;17.88;8.23;;;;;;;9.14;63.89;99708.72;4909502;29;20052;-79
2022/04/24 00:43:06;;;;;;;18.00;7.95;;;;;;;9.04;63.89;99693.00;4910990;29;20040;-80
2022/04/24 00:46:00;;;;;;;14.10;7.53;;;;;;;9.12;64.32;99707.84;4908624;29;20068;-79
2022/04/24 00:48:27;;;;;;;13.00;7.78;;;;;;;9.03;64.50;99692.13;4910857;29;20979;-81
2022/04/24 00:51:11;;;;;;;14.45;7.88;;;;;;;9.09;64.60;99710.41;4907702;29;20139;-80
2022/04/24 00:53:38;;;;;;;13.98;7.78;;;;;;;9.07;64.28;99716.47;4908877;29;20064;-79
2022/04/24 00:56:05;;;;;;;15.43;7.90;;;;;;;8.95;64.70;99686.88;4908685;29;20052;-79
2022/04/24 00:58:33;;;;;;;16.15;8.15;;;;;;;9.07;64.52;99708.66;4918057;29;20063;-79
2022/04/24 01:01:00;;;;;;;16.20;8.20;;;;;;;9.06;64.64;99713.00;4919350;29;20090;-79
2022/04/24 01:03:28;;;;;;;15.73;7.85;;;;;;;8.97;64.68;99694.69;4919969;29;20079;-79
2022/04/24 01:05:56;;;;;;;15.40;8.38;;;;;;;9.06;64.02;99710.41;4919818;29;20107;-78
2022/04/24 01:08:24;;;;;;;17.15;8.48;;;;;;;8.86;64.15;99665.94;4919792;29;20103;-79
2022/04/24 01:10:51;;;;;;;15.93;8.00;;;;;;;9.05;64.84;99703.44;4918488;29;20087;-78
2022/04/24 01:13:17;;;;;;;14.30;7.72;;;;;;;8.89;64.37;99671.19;4919775;29;20146;-80
2022/04/24 01:15:44;;;;;;;14.57;8.57;;;;;;;8.97;64.79;99685.16;4919732;29;20502;-79
2022/04/24 01:18:13;;;;;;;15.27;8.10;;;;;;;8.78;64.69;99658.09;4918990;29;20063;-78
2022/04/24 01:20:41;;;;;;;15.05;8.55;;;;;;;8.76;64.86;99678.03;4917902;29;20106;-79
2022/04/24 01:23:09;;;;;;;15.33;7.93;;;;;;;8.87;64.97;99678.13;4919814;29;20052;-79
2022/04/24 01:25:36;;;;;;;14.38;7.50;;;;;;;8.85;64.80;99677.25;4919657;29;20296;-80
2022/04/24 01:28:09;;;;;;;14.57;7.53;;;;;;;8.86;64.95;99681.56;4919158;29;20063;-79
2022/04/24 01:30:36;;;;;;;12.93;7.72;;;;;;;8.72;64.85;99663.25;4919424;29;20091;-80
2022/04/24 01:33:03;;;;;;;11.82;7.10;;;;;;;8.75;65.25;99691.91;4914464;29;20495;-80
2022/04/24 01:35:30;;;;;;;14.65;7.65;;;;;;;8.75;65.20;99686.69;4900337;29;20049;-79
2022/04/24 01:37:58;;;;;;;14.88;7.30;;;;;;;8.76;65.26;99683.25;4900740;29;20052;-78
2022/04/24 01:40:26;;;;;;;17.17;6.65;;;;;;;8.69;65.03;99659.75;4900502;29;20067;-78
2022/04/24 01:42:54;;;;;;;14.65;7.00;;;;;;;8.77;65.58;99682.38;4900302;29;20568;-79
2022/04/24 01:45:21;;;;;;;14.55;7.05;;;;;;;8.77;64.74;99690.19;4900321;29;20076;-79
2022/04/24 01:47:47;;;;;;;16.20;7.28;;;;;;;8.50;64.97;99637.91;4898102;29;20565;-79
2022/04/24 01:50:16;;;;;;;14.07;7.05;;;;;;;8.76;65.12;99664.16;4898643;29;20082;-79
2022/04/24 01:52:43;;;;;;;14.35;6.75;;;;;;;8.69;64.31;99636.31;4899799;29;20052;-79
2022/04/24 01:55:10;;;;;;;21.40;7.22;;;;;;;8.92;64.91;99689.44;4899933;29;20048;-79
2022/04/24 01:57:39;;;;;;;12.95;6.88;;;;;;;8.84;64.47;99656.38;4899990;29;20084;-79
2022/04/24 02:00:07;;;;;;;13.63;6.68;;;;;;;8.92;64.57;99646.91;4899639;29;20426;-78
2022/04/24 02:02:38;;;;;;;15.75;6.82;;;;;;;8.88;63.70;99639.91;4899663;29;20476;-79
2022/04/24 02:05:06;;;;;;;16.02;7.05;;;;;;;8.96;63.97;99648.66;4900404;29;20060;-78
2022/04/24 02:07:33;;;;;;;12.88;6.80;;;;;;;9.16;64.18;99670.50;4900197;29;20052;-80
2022/04/24 02:10:01;;;;;;;14.13;7.45;;;;;;;9.06;63.26;99636.56;4899693;29;20515;-79
2022/04/24 02:12:30;;;;;;;15.45;7.43;;;;;;;9.14;63.38;99637.47;4899361;29;20087;-79
2022/04/24 02:14:57;;;;;;;13.38;7.75;;;;;;;9.30;63.42;99672.31;4899756;29;20511;-78
2022/04/24 02:17:24;;;;;;;14.27;7.63;;;;;;;9.29;63.23;99663.63;4899955;29;20053;-78
2022/04/24 02:19:52;;;;;;;11.07;7.10;;;;;;;9.09;63.03;99632.22;4899730;29;20113;-78
2022/04/24 02:22:21;;;;;;;13.67;7.70;;;;;;;9.26;63.21;99666.22;4899174;29;20056;-80
2022/04/24 02:24:47;;;;;;;12.93;7.95;;;;;;;9.28;63.09;99672.31;4899898;29;20072;-79
2022/04/24 02:27:14;;;;;;;11.27;7.07;;;;;;;9.26;63.27;99670.56;4899335;29;20059;-79
2022/04/24 02:29:41;;;;;;;13.50;7.32;;;;;;;9.29;63.41;99671.47;4899597;29;20510;-79
2022/04/24 02:32:08;;;;;;;15.70;7.85;;;;;;;9.21;63.33;99658.38;4899538;29;20052;-79
2022/04/24 02:34:35;;;;;;;12.30;7.47;;;;;;;9.34;63.42;99668.88;4899351;29;20088;-79
2022/04/24 02:37:03;;;;;;;14.63;8.15;;;;;;;9.19;62.97;99639.25;4898667;29;20112;-78
2022/04/24 02:39:30;;;;;;;14.68;7.35;;;;;;;9.31;63.31;99668.84;4898809;29;20066;-81
2022/04/24 02:41:57;;;;;;;12.73;7.20;;;;;;;9.28;63.65;99668.84;4898963;29;20510;-80
2022/04/24 02:44:24;;;;;;;14.30;8.25;;;;;;;9.08;63.36;99616.59;4898844;29;20061;-78
2022/04/24 02:46:50;;;;;;;14.18;7.80;;;;;;;9.33;62.52;99662.75;4898733;29;20111;-79
2022/04/24 02:49:18;;;;;;;15.50;8.27;;;;;;;9.40;62.86;99668.91;4898779;29;20064;-80
2022/04/24 02:51:45;;;;;;;12.95;7.80;;;;;;;9.56;62.90;99668.09;4898885;29;20091;-81
2022/04/24 02:54:12;;;;;;;13.95;7.57;;;;;;;9.68;62.26;99663.78;4898792;29;20139;-78
2022/04/24 02:56:39;;;;;;;13.88;7.90;;;;;;;9.77;62.05;99663.84;4898550;29;20064;-79
2022/04/24 02:59:06;;;;;;;12.90;7.88;;;;;;;9.89;61.00;99663.00;4897906;29;20558;-78
2022/04/24 03:01:36;;;;;;;12.88;8.45;;;;;;;9.95;61.61;99663.88;4898236;29;20426;-77
2022/04/24 03:04:03;;;;;;;;;;;;;;;9.81;61.48;99661.25;4899152;29;20060;-79
2022/04/24 03:06:30;;;;;;;14.18;8.15;;;;;;;9.71;61.39;99638.59;4898349;29;19999;-81
2022/04/24 03:08:57;;;;;;;13.50;8.50;;;;;;;10.09;60.95;99669.16;4898610;29;20052;-80
2022/04/24 03:11:24;;;;;;;13.35;8.07;;;;;;;10.07;60.24;99621.31;4897234;29;20072;-80
2022/04/24 03:13:51;;;;;;;15.30;8.38;;;;;;;10.64;59.25;99656.16;4898503;29;20052;-80
2022/04/24 03:16:18;;;;;;;14.88;7.82;;;;;;;11.60;56.97;99663.84;4898083;29;20095;-79
2022/04/24 03:18:45;;;;;;;14.35;7.88;;;;;;;11.94;55.64;99635.78;4898689;29;20606;-79
2022/04/24 03:21:12;;;;;;;15.25;8.07;;;;;;;11.47;56.27;99649.94;4898116;29;20060;-80
2022/04/24 03:23:39;;;;;;;14.07;7.78;;;;;;;11.01;58.21;99678.78;4898394;29;20511;-79
2022/04/24 03:26:13;;;;;;;17.15;7.95;;;;;;;10.37;59.12;99630.06;4898285;29;20092;-79
2022/04/24 03:28:42;;;;;;;12.60;7.95;;;;;;;10.27;60.00;99688.34;4898437;29;20480;-82
2022/04/24 03:31:09;;;;;;;13.85;7.90;;;;;;;9.40;60.61;99557.66;4897160;29;20076;-79
2022/04/24 03:33:36;;;;;;;11.30;7.43;;;;;;;9.90;60.27;99664.75;4898462;29;20060;-78
2022/04/24 03:36:03;;;;;;;15.05;7.68;;;;;;;9.80;61.71;99674.28;4896866;29;20131;-80
2022/04/24 03:38:30;;;;;;;14.25;8.43;;;;;;;9.58;61.64;99661.16;4898385;29;20060;-79
2022/04/24 03:40:57;;;;;;;12.90;8.10;;;;;;;9.63;61.55;99674.22;4898332;29;20056;-79
2022/04/24 03:43:24;;;;;;;13.38;7.70;;;;;;;9.54;61.99;99680.25;4899927;29;20108;-78
2022/04/24 03:45:51;;;;;;;16.08;8.35;;;;;;;9.37;62.01;99648.03;4900108;29;20541;-79
2022/04/24 03:48:18;;;;;;;11.90;7.22;;;;;;;9.46;61.92;99675.88;4899596;29;20127;-79
2022/04/24 03:50:45;;;;;;;14.95;7.18;;;;;;;9.36;62.09;99675.84;4900246;29;20059;-80
2022/04/24 03:53:12;;;;;;;15.65;8.10;;;;;;;9.38;62.57;99678.47;4899294;29;20056;-79
2022/04/24 03:55:40;;;;;;;17.17;7.82;;;;;;;9.28;62.63;99663.63;4900030;29;20084;-78
2022/04/24 03:58:14;;;;;;;12.10;7.50;;;;;;;9.33;62.87;99667.97;4898813;29;20056;-78
2022/04/24 04:00:41;;;;;;;15.50;8.15;;;;;;;9.35;63.25;99657.56;4897852;29;20056;-79
2022/04/24 04:03:08;;;;;;;12.30;7.78;;;;;;;9.34;62.74;99664.53;4897840;29;20052;-79
2022/04/24 04:05:38;;;;;;;13.20;7.95;;;;;;;9.27;62.72;99630.59;4897809;29;20419;-79
2022/04/24 04:08:06;;;;;;;16.58;8.25;;;;;;;9.45;62.40;99646.31;4897967;29;20056;-79
2022/04/24 04:10:33;;;;;;;11.63;7.65;;;;;;;9.51;62.17;99650.72;4899163;29;20067;-80
2022/04/24 04:13:00;;;;;;;14.27;7.57;;;;;;;9.55;62.92;99666.38;4901652;29;20103;-79
2022/04/24 04:15:28;;;;;;;12.55;7.43;;;;;;;9.49;62.53;99631.56;4901461;29;20417;-79
2022/04/24 04:17:55;;;;;;;13.43;8.02;;;;;;;9.65;62.06;99654.22;4900240;29;20060;-81
2022/04/24 04:20:22;;;;;;;12.88;7.72;;;;;;;9.74;62.14;99663.81;4901456;29;20081;-79
2022/04/24 04:22:54;;;;;;;13.75;8.20;;;;;;;9.79;62.31;99667.34;4901680;29;20076;-78
2022/04/24 04:25:23;;;;;;;13.98;8.27;;;;;;;9.88;61.88;99666.50;4901261;29;20104;-80
2022/04/24 04:27:52;;;;;;;19.77;8.97;;;;;;;10.01;61.89;99655.22;4900380;29;20443;-80
2022/04/24 04:30:21;;;;;;;15.95;8.27;;;;;;;9.96;61.13;99618.69;4901178;29;20064;-80
2022/04/24 04:32:50;;;;;;;;;;;;;;;10.04;61.34;99652.59;4901685;29;20052;-79
2022/04/24 04:35:22;;;;;;;12.95;7.75;;;;;;;10.18;61.25;99656.13;4901283;29;19927;-79
2022/04/24 04:37:50;;;;;;;14.68;7.70;;;;;;;10.20;61.11;99637.84;4901544;29;20057;-79
2022/04/24 04:40:23;;;;;;;12.02;7.82;;;;;;;10.41;60.78;99650.06;4899684;29;20056;-81
2022/04/24 04:42:50;;;;;;;15.43;7.50;;;;;;;10.37;61.31;99633.53;4901289;29;20084;-80
2022/04/24 04:45:17;;;;;;;16.55;8.13;;;;;;;10.52;60.56;99658.81;4899849;29;20056;-79
2022/04/24 04:47:47;;;;;;;16.17;8.13;;;;;;;10.58;60.81;99640.53;4900903;29;20513;-82
2022/04/24 04:50:15;;;;;;;13.70;7.80;;;;;;;10.47;60.41;99618.72;4901119;29;20064;-79
2022/04/24 04:52:43;;;;;;;14.00;8.05;;;;;;;10.79;60.06;99634.38;4900887;29;20515;-80
2022/04/24 04:55:11;;;;;;;11.60;7.35;;;;;;;11.08;59.33;99649.16;4900609;29;20471;-79
2022/04/24 04:57:38;;;;;;;16.20;8.23;;;;;;;10.96;59.62;99647.44;4900871;29;20064;-80
2022/04/24 05:00:07;;;;;;;15.07;7.70;;;;;;;10.89;59.64;99635.25;4899119;29;20060;-80
2022/04/24 05:02:37;;;;;;;12.40;7.25;;;;;;;10.92;60.03;99650.06;4900580;29;20056;-81
2022/04/24 05:05:06;;;;;;;13.10;7.68;;;;;;;10.81;60.26;99657.91;4899793;29;20396;-80
2022/04/24 05:07:34;;;;;;;13.80;7.63;;;;;;;10.69;60.19;99624.84;4898693;29;20057;-80
2022/04/24 05:10:03;;;;;;;15.40;7.75;;;;;;;10.78;60.19;99653.56;4900042;29;20060;-80
2022/04/24 05:12:32;;;;;;;14.57;7.35;;;;;;;10.09;60.37;99545.59;4900777;29;20064;-81
2022/04/24 05:15:03;;;;;;;15.00;7.72;;;;;;;10.63;60.72;99644.00;4900326;29;20207;-81
2022/04/24 05:17:30;;;;;;;12.43;7.50;;;;;;;10.52;60.75;99632.69;4900395;29;20104;-79
2022/04/24 05:19:58;;;;;;;12.55;7.28;;;;;;;10.65;60.66;99650.09;4900601;29;20064;-80
2022/04/24 05:22:28;;;;;;;14.07;7.78;;;;;;;10.60;60.62;99633.56;4899844;29;20056;-80
2022/04/24 05:24:55;;;;;;;19.08;8.27;;;;;;;10.73;60.73;99654.44;4900246;29;20099;-79
2022/04/24 05:27:22;;;;;;;15.82;8.07;;;;;;;10.80;60.45;99645.72;4900257;29;20139;-80
2022/04/24 05:29:49;;;;;;;15.23;8.25;;;;;;;10.79;60.75;99650.06;4900583;29;20112;-79
2022/04/24 05:32:16;;;;;;;12.05;7.50;;;;;;;10.75;60.20;99629.16;4899175;29;20052;-80
2022/04/24 05:34:43;;;;;;;12.75;7.60;;;;;;;10.85;60.09;99639.59;4899193;29;20056;-80
2022/04/24 05:37:11;;;;;;;14.07;7.45;;;;;;;10.89;60.20;99656.16;4899826;29;20123;-80
2022/04/24 05:39:38;;;;;;;14.48;7.60;;;;;;;10.86;60.20;99661.38;4915740;29;20055;-79
2022/04/24 05:42:05;;;;;;;13.38;7.80;;;;;;;10.83;60.34;99656.16;4918560;29;20055;-78
2022/04/24 05:44:33;;;;;;;11.80;7.95;;;;;;;10.79;60.52;99644.84;4919563;29;20449;-77
2022/04/24 05:47:00;;;;;;;12.68;7.88;;;;;;;10.77;60.83;99641.34;4934243;29;20150;-77
2022/04/24 05:49:27;;;;;;;14.63;8.15;;;;;;;10.69;61.06;99644.84;4918871;29;20088;-78
2022/04/24 05:51:54;;;;;;;14.13;8.05;;;;;;;10.68;60.63;99646.59;4918354;29;20060;-80
2022/04/24 05:54:21;;;;;;;14.38;7.72;;;;;;;10.66;60.95;99650.94;4918871;29;20103;-79
2022/04/24 05:56:48;;;;;;;12.90;7.00;;;;;;;10.41;60.76;99608.28;4916801;29;20060;-77
2022/04/24 05:59:15;;;;;;;15.18;7.95;;;;;;;10.62;61.27;99634.41;4917900;29;20503;-77
2022/04/24 06:01:42;;;;;;;12.45;8.05;;;;;;;10.66;61.17;99643.97;4917685;29;20056;-77
2022/04/24 06:04:09;;;;;;;13.30;8.57;;;;;;;10.73;60.70;99643.97;4917581;29;20048;-80
2022/04/24 06:06:36;;;;;;;13.65;7.20;;;;;;;10.72;61.09;99640.50;4918302;29;20056;-78
2022/04/24 06:09:03;;;;;;;14.43;7.80;;;;;;;10.64;61.23;99631.78;4918314;29;20060;-78
2022/04/24 06:11:30;;;;;;;15.55;7.93;;;;;;;10.71;61.08;99641.38;4918545;29;20056;-80
2022/04/24 06:13:57;;;;;;;14.32;8.27;;;;;;;10.68;61.44;99619.63;4918337;29;20055;-80
2022/04/24 06:16:24;;;;;;;14.07;8.15;;;;;;;10.49;61.80;99580.44;4908250;29;20059;-77
2022/04/24 06:18:51;;;;;;;16.13;8.77;;;;;;;10.45;60.89;99561.31;4918169;29;20064;-79
2022/04/24 06:21:18;;;;;;;11.68;7.97;;;;;;;10.84;60.89;99605.63;4917684;29;20494;-78
2022/04/24 06:23:45;;;;;;;15.80;9.18;;;;;;;11.01;60.72;99621.28;4916736;29;20052;-77
2022/04/24 06:26:12;;;;;;;15.13;8.85;;;;;;;11.14;60.33;99623.03;4936692;29;20052;-79
2022/04/24 06:28:39;;;;;;;16.23;9.18;;;;;;;11.05;59.90;99591.66;4937285;29;20084;-78
2022/04/24 06:31:06;;;;;;;18.27;9.20;;;;;;;11.46;58.59;99599.38;4933369;29;20048;-80
2022/04/24 06:33:33;;;;;;;18.38;10.18;;;;;;;11.64;58.36;99589.69;4925972;29;20085;-79
2022/04/24 06:36:02;;;;;;;20.33;9.95;;;;;;;11.79;58.10;99594.84;4922631;29;20051;-79
2022/04/24 06:38:29;;;;;;;19.38;10.23;;;;;;;11.93;57.77;99613.09;4925181;29;20047;-78
2022/04/24 06:40:56;;;;;;;21.92;10.55;;;;;;;11.99;57.45;99610.44;4926937;29;20055;-77
2022/04/24 06:43:22;;;;;;;16.08;9.77;;;;;;;12.13;56.64;99609.47;4923425;29;20056;-77
2022/04/24 06:45:52;;;;;;;17.58;10.38;;;;;;;12.21;56.81;99587.59;4922500;29;20055;-78
2022/04/24 06:48:19;;;;;;;16.55;10.57;;;;;;;12.42;56.12;99609.25;4926153;29;20051;-79
2022/04/24 06:50:48;;;;;;;17.38;10.23;;;;;;;12.11;56.26;99543.16;4926496;29;20502;-81
2022/04/24 06:53:18;;;;;;;18.73;10.18;;;;;;;12.65;55.63;99596.84;4925040;29;20056;-78
2022/04/24 06:55:47;;;;;;;18.40;10.35;;;;;;;12.70;55.42;99602.88;4933020;29;20481;-80
2022/04/24 06:58:19;;;;;;;16.58;10.23;;;;;;;12.87;55.09;99609.72;4921163;29;20063;-77
2022/04/24 07:00:47;;;;;;;17.67;11.38;;;;;;;13.01;54.83;99599.94;4917451;29;20070;-79
2022/04/24 07:03:35;;;;;;;16.70;10.73;;;;;;;12.97;55.14;99582.53;4919484;29;20498;-78
2022/04/24 07:06:03;;;;;;;19.33;11.55;;;;;;;12.85;54.48;99559.94;4916396;29;20048;-75
2022/04/24 07:08:32;;;;;;;17.52;11.18;;;;;;;13.15;54.91;99599.81;4915617;29;20483;-77
2022/04/24 07:10:59;;;;;;;18.75;10.63;;;;;;;13.20;54.36;99584.88;4917766;29;20060;-77
2022/04/24 07:13:26;;;;;;;19.90;10.80;;;;;;;13.49;53.86;99596.84;4925084;29;20060;-80
2022/04/24 07:15:53;;;;;;;19.73;10.43;;;;;;;13.38;53.77;99560.25;4923928;29;20082;-78
2022/04/24 07:18:21;;;;;;;22.67;10.68;;;;;;;13.63;53.52;99592.25;4922193;29;21066;-78
2022/04/24 07:20:48;;;;;;;18.63;10.80;;;;;;;13.71;53.17;99558.03;4925775;29;20055;-78
2022/04/24 07:23:16;;;;;;;17.90;9.48;;;;;;;13.99;52.47;99570.75;4922109;29;20052;-79
2022/04/24 07:25:44;;;;;;;18.67;10.90;;;;;;;14.19;51.70;99557.31;4923743;29;20055;-77
2022/04/24 07:28:18;;;;;;;18.88;9.95;;;;;;;14.57;51.29;99569.84;4923288;29;20542;-76
2022/04/24 07:30:47;;;;;;;17.67;9.95;;;;;;;14.66;51.25;99563.53;4925370;29;20052;-77
2022/04/24 07:33:19;;;;;;;17.85;9.68;;;;;;;14.83;50.77;99574.63;4927189;29;20052;-77
2022/04/24 07:35:46;;;;;;;18.33;9.68;;;;;;;14.89;50.39;99542.09;4925245;29;20067;-78
2022/04/24 07:38:15;;;;;;;18.35;10.13;;;;;;;15.24;49.88;99558.94;4924761;29;20066;-77
2022/04/24 07:40:47;;;;;;;16.45;9.10;;;;;;;15.39;49.13;99578.81;4922169;29;20055;-78
2022/04/24 07:43:17;;;;;;;16.45;9.60;;;;;;;15.56;48.89;99566.16;4925030;29;20062;-78
2022/04/24 07:45:49;;;;;;;16.15;8.80;;;;;;;15.48;47.23;99553.13;4921882;29;20055;-77
2022/04/24 07:48:19;;;;;;;14.48;8.68;;;;;;;15.78;47.31;99556.03;4924659;29;20071;-78
2022/04/24 07:50:52;;;;;;;17.10;8.70;;;;;;;15.96;46.29;99547.72;4922705;29;20131;-79
2022/04/24 07:53:21;;;;;;;12.65;8.05;;;;;;;16.40;45.72;99551.94;4923124;29;20056;-78
2022/04/24 07:55:50;;;;;;;13.63;8.18;;;;;;;16.47;45.30;99529.78;4924316;29;20056;-78
2022/04/24 07:58:19;;;;;;;14.85;9.38;;;;;;;16.78;45.14;99556.22;4923171;29;20103;-78
2022/04/24 08:00:49;;;;;;;13.13;8.55;;;;;;;16.96;44.57;99550.44;4926006;29;20142;-78
2022/04/24 08:03:19;;;;;;;14.90;8.32;;;;;;;17.07;44.49;99546.66;4920314;29;20052;-79
2022/04/24 08:05:50;;;;;;;14.32;7.70;;;;;;;17.31;42.68;99548.56;4923592;29;20052;-78
2022/04/24 08:08:23;;;;;;;12.52;8.25;;;;;;;17.47;41.88;99542.88;4922417;29;20114;-77
2022/04/24 08:10:57;;;;;;;12.32;7.18;;;;;;;17.53;41.13;99545.28;4924974;29;20216;-78
2022/04/24 08:13:27;;;;;;;12.07;7.03;;;;;;;17.48;40.50;99541.94;4922205;29;20063;-77
2022/04/24 08:15:54;;;;;;;11.70;7.15;;;;;;;17.49;40.42;99543.69;4925232;29;20060;-79
2022/04/24 08:18:23;;;;;;;14.88;7.63;;;;;;;17.71;39.89;99543.91;4926559;29;20114;-78
2022/04/24 08:20:51;;;;;;;10.65;6.95;;;;;;;17.87;39.32;99533.72;4925888;29;20103;-77
2022/04/24 08:23:25;;;;;;;13.15;6.80;;;;;;;17.91;39.04;99540.66;4923367;29;20056;-78
2022/04/24 08:26:38;;;;;;;14.70;7.18;;;;;;;17.86;39.00;99538.16;4926784;29;20585;-78
2022/04/24 08:29:06;;;;;;;24.80;6.63;;;;;;;17.87;38.48;99539.00;4926223;29;20528;-78
2022/04/24 08:31:35;;;;;;;10.32;5.95;;;;;;;17.76;38.71;99507.63;4922560;29;20056;-78
2022/04/24 08:34:04;;;;;;;13.02;6.95;;;;;;;17.92;38.40;99526.53;4923968;29;20083;-77
2022/04/24 08:36:32;;;;;;;11.55;6.30;;;;;;;17.98;38.19;99531.59;4925427;29;20082;-77
2022/04/24 08:38:59;;;;;;;12.80;6.47;;;;;;;17.94;37.61;99520.28;4924263;29;20076;-78
2022/04/24 08:41:31;;;;;;;15.57;7.40;;;;;;;18.09;37.67;99518.03;4918051;29;20056;-78
2022/04/24 08:44:01;;;;;;;11.07;6.70;;;;;;;18.30;37.44;99513.81;4914744;29;20142;-79
2022/04/24 08:46:28;;;;;;;12.00;6.72;;;;;;;18.28;37.36;99516.50;4915689;29;20064;-79
2022/04/24 08:48:56;;;;;;;11.43;7.15;;;;;;;18.21;37.62;99510.56;4916087;29;20048;-79
2022/04/24 08:51:24;;;;;;;15.45;7.95;;;;;;;18.12;37.89;99528.53;4916419;29;20066;-79
2022/04/24 08:53:54;;;;;;;11.85;7.30;;;;;;;18.29;37.73;99520.03;4916278;29;20052;-78
2022/04/24 08:56:21;;;;;;;12.95;7.10;;;;;;;18.19;37.32;99470.09;4916578;29;20427;-79
2022/04/24 08:58:50;;;;;;;10.85;6.03;;;;;;;18.46;36.75;99488.59;4919079;29;20111;-79
2022/04/24 09:01:23;;;;;;;14.13;6.78;;;;;;;18.78;36.30;99497.22;4917600;29;20060;-78
2022/04/24 09:03:54;;;;;;;11.30;6.43;;;;;;;18.78;36.65;99506.00;4918900;29;20063;-78
2022/04/24 09:06:26;;;;;;;12.75;6.72;;;;;;;18.96;36.18;99503.59;4917384;29;20103;-79
2022/04/24 09:09:07;;;;;;;11.45;5.80;;;;;;;19.08;35.37;99491.69;4917987;29;20047;-78
2022/04/24 09:11:36;;;;;;;12.85;5.68;;;;;;;19.06;34.38;99488.22;4917435;29;20062;-79
2022/04/24 09:14:15;;;;;;;8.65;4.80;;;;;;;19.11;33.68;99491.59;4917957;29;20467;-78
2022/04/24 09:16:49;;;;;;;12.55;5.18;;;;;;;19.21;33.35;99483.25;4918748;29;20052;-80
2022/04/24 09:19:23;;;;;;;9.07;5.03;;;;;;;19.30;33.33;99492.63;4918688;29;20066;-79
2022/04/24 09:21:54;;;;;;;9.18;5.03;;;;;;;19.42;33.31;99492.16;4918755;29;20469;-80
2022/04/24 09:24:27;;;;;;;12.57;5.20;;;;;;;19.56;33.31;99491.59;4917384;29;20056;-79
2022/04/24 09:26:57;;;;;;;9.70;5.72;;;;;;;19.56;33.21;99483.66;4919029;29;20052;-78
2022/04/24 09:29:25;;;;;;;27.77;6.03;;;;;;;19.70;33.08;99488.41;4919071;29;20052;-79
2022/04/24 09:31:56;;;;;;;10.15;5.90;;;;;;;19.32;33.33;99456.34;4918839;29;20055;-78
2022/04/24 09:34:31;;;;;;;9.85;5.70;;;;;;;19.46;33.63;99492.88;4918840;29;20059;-78
2022/04/24 09:37:01;;;;;;;12.75;6.13;;;;;;;19.43;33.83;99490.38;4918339;29;20111;-79
2022/04/24 09:39:33;;;;;;;10.95;5.90;;;;;;;19.38;33.77;99481.72;4918341;29;20059;-78
2022/04/24 09:42:10;;;;;;;13.98;6.85;;;;;;;19.26;34.16;99458.38;4917309;29;20094;-79
2022/04/24 09:44:46;;;;;;;10.48;5.53;;;;;;;19.34;34.48;99464.25;4918173;29;20063;-77
2022/04/24 09:47:42;;;;;;;14.57;5.32;;;;;;;19.38;34.32;99461.41;4917949;29;20056;-78
2022/04/24 09:50:13;;;;;;;8.55;6.03;;;;;;;19.41;34.45;99471.88;4918121;29;20096;-78
2022/04/24 09:53:04;;;;;;;10.88;5.63;;;;;;;19.53;34.08;99462.59;4917343;29;20051;-77
2022/04/24 09:55:34;;;;;;;11.40;5.68;;;;;;;19.58;34.48;99463.25;4918068;29;20171;-78
2022/04/24 09:58:01;;;;;;;13.00;6.53;;;;;;;19.59;34.46;99461.47;4917783;29;20115;-78
2022/04/24 10:00:30;;;;;;;10.10;5.22;;;;;;;19.54;34.42;99466.94;4917615;29;20091;-79
2022/04/24 10:02:59;;;;;;;;;;;;;;;19.19;35.64;99465.69;4915389;29;20064;-79
2022/04/24 10:05:28;;;;;;;10.88;6.03;;;;;;;19.01;35.37;99446.06;4922819;29;19927;-79
2022/04/24 10:07:57;;;;;;;11.52;6.45;;;;;;;19.06;35.47;99465.28;4926167;29;20051;-80
2022/04/24 10:10:47;;;;;;;10.52;5.93;;;;;;;18.99;35.52;99471.72;4925091;29;20131;-79
2022/04/24 10:13:38;;;;;;;;;;;;;;;18.48;36.68;99462.09;4924357;29;20110;-78
2022/04/24 10:16:28;;;;;;;12.38;6.40;;;;;;;18.54;36.02;99457.47;4927188;29;19938;-82
2022/04/24 10:19:21;;;;;;;10.48;5.72;;;;;;;18.51;36.05;99436.41;4927646;29;20047;-79
2022/04/24 10:22:05;;;;;;;10.50;5.50;;;;;;;18.40;36.06;99444.72;4927601;29;20422;-79
2022/04/24 10:24:41;;;;;;;7.88;5.13;;;;;;;18.50;35.82;99449.66;4927880;29;20134;-80
2022/04/24 10:27:12;;;;;;;10.25;5.43;;;;;;;18.59;35.76;99463.44;4928247;29;20497;-79
2022/04/24 10:29:51;;;;;;;7.40;5.45;;;;;;;18.73;35.42;99432.97;4924182;29;20399;-78
2022/04/24 10:32:26;;;;;;;11.52;5.88;;;;;;;19.22;34.88;99447.03;4926312;29;20056;-77
2022/04/24 10:34:55;;;;;;;8.13;5.10;;;;;;;19.50;34.61;99445.94;4926319;29;20051;-80
2022/04/24 10:37:44;;;;;;;7.63;5.15;;;;;;;19.76;34.12;99450.22;4924187;29;20517;-78
2022/04/24 10:40:16;;;;;;;9.20;5.45;;;;;;;19.71;33.83;99444.25;4927454;29;20055;-79
2022/04/24 10:42:49;;;;;;;11.52;5.85;;;;;;;19.38;34.61;99444.63;4927711;29;20058;-78
2022/04/24 10:45:20;;;;;;;7.60;5.32;;;;;;;19.06;34.98;99449.41;4931188;29;20058;-78
2022/04/24 10:48:03;;;;;;;7.40;5.28;;;;;;;18.66;35.98;99452.63;4937237;29;20052;-78
2022/04/24 10:50:33;;;;;;;8.15;4.70;;;;;;;18.36;35.71;99399.94;4931314;29;20107;-79
2022/04/24 10:53:10;;;;;;;15.25;5.30;;;;;;;18.48;35.97;99444.44;4917382;29;20083;-79
2022/04/24 10:55:42;;;;;;;5.90;4.68;;;;;;;18.41;35.42;99443.81;4915974;29;20071;-81
2022/04/24 10:58:37;;;;;;;11.32;4.78;;;;;;;18.13;35.90;99414.84;4916806;29;20530;-78
2022/04/24 11:01:15;;;;;;;10.13;4.60;;;;;;;18.12;36.17;99444.81;4914747;29;20063;-78
2022/04/24 11:03:43;;;;;;;10.77;4.53;;;;;;;17.99;36.00;99443.50;4917090;29;20131;-80
2022/04/24 11:06:23;;;;;;;10.05;4.68;;;;;;;17.79;35.87;99405.38;4916836;29;20080;-78
2022/04/24 11:08:53;;;;;;;9.77;4.50;;;;;;;18.01;36.14;99431.97;4915932;29;20123;-82
2022/04/24 11:11:21;;;;;;;8.05;4.82;;;;;;;18.19;36.36;99435.75;4930960;29;20290;-81
2022/04/24 11:13:49;;;;;;;7.10;5.28;;;;;;;18.28;36.99;99439.00;4916880;29;20062;-81
2022/04/24 11:16:16;;;;;;;12.65;6.30;;;;;;;18.12;37.36;99401.66;4916164;29;20107;-81
2022/04/24 11:18:47;;;;;;;10.55;5.93;;;;;;;18.08;37.54;99403.53;4920174;29;20510;-81
2022/04/24 11:21:21;;;;;;;9.63;4.85;;;;;;;18.18;37.11;99438.47;4920028;29;20566;-77
2022/04/24 11:23:48;;;;;;;12.55;4.28;;;;;;;18.08;36.02;99416.75;4926538;29;20500;-82
2022/04/24 11:26:16;;;;;;;7.65;4.60;;;;;;;18.20;35.84;99445.41;4935697;29;20051;-81
2022/04/24 11:28:48;;;;;;;7.85;5.20;;;;;;;17.96;35.05;99428.63;4935291;29;20146;-81
2022/04/24 11:31:17;;;;;;;10.40;5.30;;;;;;;17.90;34.53;99439.38;4935581;29;20063;-79
2022/04/24 11:33:50;;;;;;;11.43;4.93;;;;;;;17.71;33.44;99432.97;4935851;29;20060;-78
2022/04/24 11:36:21;;;;;;;8.52;4.43;;;;;;;17.50;32.93;99435.34;4935687;29;20260;-79
2022/04/24 11:38:49;;;;;;;7.47;3.70;;;;;;;17.51;33.02;99457.34;4935545;29;20055;-79
2022/04/24 11:41:17;;;;;;;7.55;4.03;;;;;;;17.46;32.92;99461.91;4935592;29;20061;-83